KWMC/WMC METAR and TAF weather

Enter ICAO airport designator
Station Type Date Time Source
KWMC METAR 2019/10/21 02:56 UTC NOAA

KWMC 210256Z AUTO 24006KT 10SM FEW075 10/M05 A3014 RMK AO2 SLP216 T01001050 53003


Station Type Date Time Source
KWMC Decoded METAR 2019/10/21 02:56 UTC NOAA

WINNEMUCCA MUNICIPAL AIRPORT, NV, United States (KWMC) 40-54N 117-48W 1310M
Oct 20, 2019 - 10:56 PM EDT / 2019.10.21 0256 UTC
Wind: from the WSW (240 degrees) at 7 MPH (6 KT):0
Visibility: 10 mile(s):0
Sky conditions: mostly clear
Temperature: 50.0 F (10.0 C)
Dew Point: 23.0 F (-5.0 C)
Relative Humidity: 34%
Pressure (altimeter): 30.14 in. Hg (1020 hPa)
Pressure tendency: 0.01 inches (0.3 hPa) higher than three hours ago
ob: KWMC 210256Z AUTO 24006KT 10SM FEW075 10/M05 A3014 RMK AO2 SLP216 T01001050 53003
cycle: 3

Station Type Date Time Source
KWMC TAF 2019/10/20 18:22 UTC NOAA

TAF KWMC 201720Z 2018/2118 13008KT P6SM SCT080
FM202000 22008KT P6SM BKN060
FM210200 VRB05KT P6SM SCT060 SCT120

Example: see airport list